Time;durP1;ratioP1;P1;durP2;ratioP2;P2;SDS_P1;SDS_P2;PMS_P1;PMS_P2;Temp;Humidity;BMP_temperature;BMP_pressure;BME280_temperature;BME280_humidity;BME280_pressure;Samples;Min_cycle;Max_cycle;Signal;HPM_P1;HPM_P2
2023/08/11 00:00:27;;;;;;;2.33;1.90;;;;;;;8.80;100.00;98425.31;6207551;28;20264;-54
2023/08/11 00:03:30;;;;;;;2.00;1.80;;;;;;;8.79;100.00;98426.34;6206696;28;20233;-54
2023/08/11 00:06:33;;;;;;;2.90;2.00;;;;;;;8.77;100.00;98420.44;6205813;28;20228;-55
2023/08/11 00:09:35;;;;;;;2.40;2.10;;;;;;;8.70;100.00;98409.00;6198262;28;20579;-55
2023/08/11 00:12:38;;;;;;;2.03;1.70;;;;;;;8.79;100.00;98419.19;6189510;28;20236;-52
2023/08/11 00:15:40;;;;;;;2.10;1.70;;;;;;;8.80;100.00;98425.31;6188875;28;20251;-55
2023/08/11 00:18:43;;;;;;;3.97;1.80;;;;;;;8.71;100.00;98405.31;6208244;28;20220;-52
2023/08/11 00:21:45;;;;;;;2.40;1.90;;;;;;;8.69;100.00;98400.22;6216174;28;20241;-55
2023/08/11 00:24:47;;;;;;;3.03;1.90;;;;;;;8.74;100.00;98415.53;6207643;28;20323;-54
2023/08/11 00:27:50;;;;;;;3.03;2.20;;;;;;;8.73;100.00;98424.53;6205754;28;20241;-53
2023/08/11 00:30:53;;;;;;;1.77;1.63;;;;;;;8.69;100.00;98413.50;6189306;28;20236;-54
2023/08/11 00:33:56;;;;;;;1.70;1.60;;;;;;;8.72;100.00;98414.94;6205450;28;20240;-53
2023/08/11 00:36:59;;;;;;;1.63;1.53;;;;;;;8.74;100.00;98404.91;6211901;28;20220;-52
2023/08/11 00:40:03;;;;;;;2.60;2.40;;;;;;;8.75;100.00;98410.00;6196505;28;20229;-53
2023/08/11 00:43:07;;;;;;;1.83;1.63;;;;;;;8.74;100.00;98407.56;6207669;28;20250;-53
2023/08/11 00:46:12;;;;;;;1.87;1.77;;;;;;;8.78;100.00;98414.09;6208823;28;20239;-51
2023/08/11 00:49:15;;;;;;;2.57;1.80;;;;;;;8.68;100.00;98408.41;6207849;28;20232;-55
2023/08/11 00:52:18;;;;;;;1.97;1.80;;;;;;;8.74;100.00;98416.34;6212035;28;20225;-53
2023/08/11 00:55:21;;;;;;;1.70;1.60;;;;;;;8.76;100.00;98418.78;6211907;28;20234;-54
2023/08/11 00:58:25;;;;;;;2.07;1.80;;;;;;;8.77;100.00;98415.94;6191808;28;20238;-54
2023/08/11 01:01:27;;;;;;;5.27;2.10;;;;;;;8.76;100.00;98408.16;6204092;28;20233;-54
2023/08/11 01:04:30;;;;;;;1.97;1.83;;;;;;;8.61;100.00;98395.16;6189481;28;20232;-54
2023/08/11 01:07:41;;;;;;;3.40;1.90;;;;;;;8.60;100.00;98401.50;6204675;28;20275;-53
2023/08/11 01:11:06;;;;;;;2.93;2.00;;;;;;;8.62;100.00;98415.41;6207438;28;20237;-54
2023/08/11 01:14:22;;;;;;;2.47;1.87;;;;;;;8.63;100.00;98413.56;6171440;28;20259;-53
2023/08/11 01:17:27;;;;;;;2.73;2.17;;;;;;;8.60;100.00;98411.31;6204963;28;20319;-55
2023/08/11 01:20:32;;;;;;;2.10;1.90;;;;;;;8.57;100.00;98417.03;6206293;28;20225;-54
2023/08/11 01:23:35;;;;;;;1.47;1.30;;;;;;;8.55;100.00;98408.47;6206427;28;20230;-53
2023/08/11 01:26:37;;;;;;;3.80;2.23;;;;;;;8.48;100.00;98401.34;6186403;28;20236;-54
2023/08/11 01:29:39;;;;;;;1.70;1.60;;;;;;;8.57;100.00;98419.69;6187455;28;20308;-53
2023/08/11 01:32:42;;;;;;;2.20;2.00;;;;;;;8.52;100.00;98410.53;6205763;28;20239;-53
2023/08/11 01:35:45;;;;;;;1.90;1.70;;;;;;;8.51;100.00;98413.38;6207946;28;20290;-53
2023/08/11 01:38:48;;;;;;;1.90;1.80;;;;;;;8.41;100.00;98387.28;6209665;28;20718;-55
2023/08/11 01:41:50;;;;;;;1.80;1.70;;;;;;;8.51;100.00;98400.91;6205521;28;20228;-52
2023/08/11 01:44:53;;;;;;;2.27;1.97;;;;;;;8.50;100.00;98412.56;6204705;28;20241;-54
2023/08/11 01:47:56;;;;;;;2.77;1.77;;;;;;;8.46;100.00;98411.34;6205519;28;20232;-55
2023/08/11 01:50:58;;;;;;;2.00;1.80;;;;;;;8.44;100.00;98405.44;6175143;28;20248;-54
2023/08/11 01:54:00;;;;;;;2.57;1.90;;;;;;;8.41;100.00;98407.69;6190630;28;20224;-54
2023/08/11 01:57:05;;;;;;;2.77;2.20;;;;;;;8.38;100.00;98408.94;6187013;28;20737;-55
2023/08/11 02:00:16;;;;;;;4.93;2.00;;;;;;;8.38;100.00;98402.81;6185948;28;20780;-54
2023/08/11 02:03:20;;;;;;;3.20;2.10;;;;;;;8.41;100.00;98400.53;6204699;28;20604;-56
2023/08/11 02:06:22;;;;;;;2.03;1.83;;;;;;;8.40;100.00;98409.53;6171595;28;20225;-52
2023/08/11 02:09:25;;;;;;;4.87;1.90;;;;;;;8.38;100.00;98406.28;6210540;28;20235;-54
2023/08/11 02:12:28;;;;;;;2.63;2.27;;;;;;;8.36;100.00;98405.66;6201072;28;20691;-52
2023/08/11 02:15:30;;;;;;;2.70;2.00;;;;;;;8.33;100.00;98408.72;6201849;28;20227;-53
2023/08/11 02:18:32;;;;;;;2.87;2.03;;;;;;;8.28;100.00;98404.03;6187153;28;20264;-53
2023/08/11 02:21:38;;;;;;;4.60;2.23;;;;;;;8.28;100.00;98397.94;6204491;28;20331;-54
2023/08/11 02:24:40;;;;;;;2.03;1.83;;;;;;;8.29;100.00;98407.50;6206443;28;20237;-55
2023/08/11 02:27:43;;;;;;;3.73;2.03;;;;;;;8.29;100.00;98402.19;6203110;28;20228;-55
2023/08/11 02:30:46;;;;;;;3.13;2.07;;;;;;;8.22;100.00;98399.53;6187395;28;20232;-55
2023/08/11 02:33:49;;;;;;;2.97;2.30;;;;;;;8.27;100.00;98404.22;6200769;28;20232;-55
2023/08/11 02:36:51;;;;;;;2.30;2.10;;;;;;;8.30;100.00;98403.81;6201987;28;20240;-54
2023/08/11 02:39:54;;;;;;;4.30;2.30;;;;;;;8.28;100.00;98400.56;6208758;28;20383;-54
2023/08/11 02:42:57;;;;;;;2.47;2.27;;;;;;;8.26;100.00;98402.59;6204396;28;20746;-54
2023/08/11 02:46:01;;;;;;;2.53;2.33;;;;;;;8.25;100.00;98407.09;6204063;28;20336;-55
2023/08/11 02:49:05;;;;;;;2.53;2.33;;;;;;;8.23;100.00;98403.84;6203846;28;20240;-55
2023/08/11 02:52:10;;;;;;;2.30;2.10;;;;;;;8.23;100.00;98400.38;6198690;28;20228;-53
2023/08/11 02:55:13;;;;;;;2.40;2.20;;;;;;;8.23;100.00;98408.34;6177625;28;20278;-53
2023/08/11 02:58:15;;;;;;;6.03;2.77;;;;;;;8.22;100.00;98406.69;6186706;28;20236;-54
2023/08/11 03:01:17;;;;;;;2.17;2.00;;;;;;;8.21;100.00;98411.19;6199095;28;20774;-53
2023/08/11 03:04:20;;;;;;;2.57;2.17;;;;;;;8.22;100.00;98412.81;6204389;28;20318;-55
2023/08/11 03:07:23;;;;;;;3.57;2.43;;;;;;;8.22;100.00;98417.31;6203883;28;20242;-55
2023/08/11 03:10:26;;;;;;;2.50;2.30;;;;;;;8.22;100.00;98412.00;6206500;28;20303;-53
2023/08/11 03:13:29;;;;;;;2.50;2.20;;;;;;;8.23;100.00;98413.66;6205264;28;20235;-53
2023/08/11 03:16:32;;;;;;;2.20;2.00;;;;;;;8.21;100.00;98416.50;6191383;28;20227;-53
2023/08/11 03:19:37;;;;;;;2.53;2.33;;;;;;;8.15;100.00;98405.91;6200131;28;20236;-53
2023/08/11 03:22:41;;;;;;;2.57;2.37;;;;;;;8.17;100.00;98415.28;6186540;28;20243;-55
2023/08/11 03:25:43;;;;;;;3.07;2.40;;;;;;;8.16;100.00;98415.50;6210162;28;20303;-54
2023/08/11 03:28:46;;;;;;;2.70;2.50;;;;;;;8.10;100.00;98411.03;6198774;28;20241;-53
2023/08/11 03:31:49;;;;;;;5.00;2.57;;;;;;;8.19;100.00;98413.25;6189082;28;20306;-55
2023/08/11 03:34:52;;;;;;;3.73;2.77;;;;;;;8.18;100.00;98414.28;6191050;28;20243;-55
2023/08/11 03:37:55;;;;;;;2.90;2.60;;;;;;;8.13;100.00;98419.41;6170757;28;20232;-54
2023/08/11 03:40:57;;;;;;;3.03;2.73;;;;;;;8.15;100.00;98417.34;6216764;28;20213;-53
2023/08/11 03:44:00;;;;;;;2.90;2.60;;;;;;;8.22;100.00;98419.97;6208238;28;20243;-53
2023/08/11 03:47:03;;;;;;;2.97;2.53;;;;;;;8.21;100.00;98424.47;6185439;28;20233;-55
2023/08/11 03:50:07;;;;;;;4.10;2.70;;;;;;;8.22;100.00;98417.31;6207553;28;20244;-54
2023/08/11 03:53:10;;;;;;;3.60;2.63;;;;;;;8.21;100.00;98424.47;6189469;28;20240;-53
2023/08/11 03:56:12;;;;;;;2.63;2.43;;;;;;;8.26;100.00;98421.19;6207639;28;20243;-53
2023/08/11 03:59:18;;;;;;;2.43;2.23;;;;;;;8.27;100.00;98426.31;6189807;28;20710;-53
2023/08/11 04:02:21;;;;;;;2.63;2.17;;;;;;;8.28;100.00;98429.78;6189391;28;20240;-55
2023/08/11 04:05:24;;;;;;;2.90;2.50;;;;;;;8.27;100.00;98431.63;6189315;28;20240;-54
2023/08/11 04:08:27;;;;;;;5.87;2.33;;;;;;;8.31;100.00;98436.50;6208864;28;20253;-54
2023/08/11 04:11:32;;;;;;;2.50;2.30;;;;;;;8.34;100.00;98442.22;6213735;28;20306;-54
2023/08/11 04:14:35;;;;;;;2.90;2.70;;;;;;;8.35;100.00;98440.38;6204243;28;20232;-53
2023/08/11 04:17:37;;;;;;;6.17;4.00;;;;;;;8.28;100.00;98437.75;6208707;28;21228;-55
2023/08/11 04:20:40;;;;;;;4.87;3.63;;;;;;;8.34;100.00;98444.06;6207845;28;20232;-54
2023/08/11 04:23:42;;;;;;;3.57;3.17;;;;;;;8.36;100.00;98450.81;6203910;28;20827;-54
2023/08/11 04:26:45;;;;;;;3.40;3.03;;;;;;;8.40;100.00;98449.38;6195919;28;20363;-54
2023/08/11 04:29:47;;;;;;;3.40;3.10;;;;;;;8.42;100.00;98436.72;6211472;28;20243;-54
2023/08/11 04:32:50;;;;;;;3.20;2.90;;;;;;;8.50;100.00;98452.41;6203543;28;20259;-55
2023/08/11 04:35:53;;;;;;;3.67;3.20;;;;;;;8.50;100.00;98449.75;6207752;28;20263;-53
2023/08/11 04:38:55;;;;;;;3.23;2.80;;;;;;;8.55;100.00;98450.97;6190753;28;20220;-55
2023/08/11 04:41:57;;;;;;;4.43;2.93;;;;;;;8.51;100.00;98435.44;6195678;28;20243;-54
2023/08/11 04:45:00;;;;;;;3.20;2.67;;;;;;;8.65;100.00;98456.63;6188947;28;20239;-54
2023/08/11 04:48:03;;;;;;;6.17;2.93;;;;;;;8.62;100.00;98447.25;6187518;28;20594;-53
2023/08/11 04:51:07;;;;;;;3.60;3.03;;;;;;;8.73;100.00;98451.91;6189045;28;20220;-55
2023/08/11 04:54:11;;;;;;;9.17;2.97;;;;;;;8.72;100.00;98446.81;6190053;28;20687;-54
2023/08/11 04:57:14;;;;;;;2.90;2.60;;;;;;;8.81;100.00;98461.47;6211838;28;20213;-55
2023/08/11 05:00:17;;;;;;;3.67;2.83;;;;;;;8.82;100.00;98457.81;6188459;28;20224;-55
2023/08/11 05:03:19;;;;;;;3.60;3.17;;;;;;;8.85;100.00;98464.53;6206943;28;20252;-54
2023/08/11 05:06:22;;;;;;;3.00;2.70;;;;;;;8.91;100.00;98458.34;6201856;28;20849;-54
2023/08/11 05:09:24;;;;;;;4.47;3.07;;;;;;;8.95;100.00;98468.34;6205289;28;20229;-55
2023/08/11 05:12:26;;;;;;;3.67;3.00;;;;;;;9.00;100.00;98473.84;6211097;28;20226;-54
2023/08/11 05:15:29;;;;;;;3.57;3.27;;;;;;;9.04;100.00;98477.72;6205935;28;20725;-54
2023/08/11 05:18:31;;;;;;;3.30;2.77;;;;;;;9.07;100.00;98476.50;6205499;28;20225;-54
2023/08/11 05:21:44;;;;;;;3.33;3.03;;;;;;;9.04;100.00;98463.63;6206373;28;20653;-53
2023/08/11 05:24:47;;;;;;;3.27;2.97;;;;;;;9.14;100.00;98479.91;6205791;28;20327;-54
2023/08/11 05:27:49;;;;;;;3.23;2.83;;;;;;;9.18;100.00;98480.31;6211550;28;20299;-53
2023/08/11 05:30:51;;;;;;;3.33;2.93;;;;;;;9.22;100.00;98482.34;6206384;28;20233;-54
2023/08/11 05:33:55;;;;;;;3.70;3.40;;;;;;;9.27;100.00;98482.53;6208949;28;20229;-52
2023/08/11 05:36:57;;;;;;;3.00;2.70;;;;;;;9.33;100.00;98485.34;6202439;28;20242;-53
2023/08/11 05:40:00;;;;;;;3.17;2.87;;;;;;;9.39;100.00;98484.47;6204671;28;20320;-54
2023/08/11 05:43:02;;;;;;;4.50;3.60;;;;;;;9.45;100.00;98487.09;6209412;28;20239;-55
2023/08/11 05:46:06;;;;;;;3.80;3.50;;;;;;;9.43;100.00;98475.88;6201226;28;20233;-54
2023/08/11 05:49:09;;;;;;;3.30;3.00;;;;;;;9.59;100.00;98489.69;6204469;28;20232;-53
2023/08/11 05:52:11;;;;;;;3.60;3.30;;;;;;;9.68;100.00;98491.03;6204601;28;20228;-55
2023/08/11 05:55:14;;;;;;;4.97;3.37;;;;;;;9.76;100.00;98490.78;6202557;28;20235;-55
2023/08/11 05:58:16;;;;;;;3.77;3.10;;;;;;;9.87;100.00;98486.59;6209656;28;20242;-52
2023/08/11 06:01:19;;;;;;;5.67;3.23;;;;;;;9.98;100.00;98489.38;6204158;28;20234;-55
2023/08/11 06:04:21;;;;;;;3.50;3.20;;;;;;;10.10;100.00;98494.81;6204097;28;20269;-56
2023/08/11 06:07:24;;;;;;;5.23;3.30;;;;;;;10.28;100.00;98500.19;6203202;28;20285;-54
2023/08/11 06:10:27;;;;;;;3.40;3.10;;;;;;;10.33;100.00;98497.69;6186102;28;20240;-55
2023/08/11 06:13:29;;;;;;;3.43;3.10;;;;;;;10.48;100.00;98500.00;6204235;28;20243;-55
2023/08/11 06:16:31;;;;;;;3.30;3.00;;;;;;;10.60;100.00;98502.75;6204487;28;20250;-56
2023/08/11 06:19:33;;;;;;;4.10;3.70;;;;;;;10.76;100.00;98504.00;6206063;28;20285;-55
2023/08/11 06:22:35;;;;;;;3.87;3.47;;;;;;;10.90;100.00;98502.00;6205074;28;20235;-55
2023/08/11 06:25:39;;;;;;;4.10;3.70;;;;;;;11.04;100.00;98506.94;6204226;28;20335;-55
2023/08/11 06:28:41;;;;;;;4.00;3.70;;;;;;;11.24;100.00;98513.88;6203768;28;20246;-54
2023/08/11 06:31:43;;;;;;;4.53;4.13;;;;;;;11.40;100.00;98513.25;6208543;28;20243;-55
2023/08/11 06:34:46;;;;;;;6.17;4.13;;;;;;;11.62;100.00;98516.22;6187858;28;20283;-54
2023/08/11 06:37:48;;;;;;;4.70;4.07;;;;;;;11.73;100.00;98523.47;6204028;28;20271;-55
2023/08/11 06:40:51;;;;;;;4.97;4.00;;;;;;;11.90;100.00;98520.97;6204441;28;20650;-56
2023/08/11 06:43:54;;;;;;;6.07;4.20;;;;;;;12.14;100.00;98514.59;6202529;28;20549;-55
2023/08/11 06:46:57;;;;;;;4.27;3.87;;;;;;;12.33;100.00;98525.19;6203817;28;20239;-56
2023/08/11 06:50:00;;;;;;;3.90;3.60;;;;;;;12.43;100.00;98512.06;6203515;28;20283;-55
2023/08/11 06:53:02;;;;;;;4.43;3.90;;;;;;;12.73;100.00;98519.94;6198406;28;20238;-56
2023/08/11 06:56:05;;;;;;;4.20;3.80;;;;;;;12.93;100.00;98524.09;6205976;28;20265;-57
2023/08/11 06:59:07;;;;;;;3.90;3.60;;;;;;;13.12;100.00;98520.19;6209083;28;20382;-57
2023/08/11 07:02:10;;;;;;;3.73;3.37;;;;;;;13.34;100.00;98518.50;6204131;28;20231;-57
2023/08/11 07:05:12;;;;;;;3.50;3.20;;;;;;;13.55;100.00;98518.91;6159256;28;1293048;-55
2023/08/11 07:08:14;;;;;;;3.60;3.30;;;;;;;13.76;100.00;98523.56;6207678;28;20228;-56
2023/08/11 07:11:16;;;;;;;3.27;2.97;;;;;;;14.00;100.00;98520.75;6205388;28;20243;-57
2023/08/11 07:14:18;;;;;;;3.53;3.20;;;;;;;14.20;100.00;98526.44;6205992;28;20365;-57
2023/08/11 07:17:20;;;;;;;5.50;2.80;;;;;;;14.35;100.00;98529.34;6201371;28;20232;-54
2023/08/11 07:20:23;;;;;;;2.53;2.33;;;;;;;14.54;100.00;98526.44;6208391;28;20235;-56
2023/08/11 07:23:25;;;;;;;3.17;2.53;;;;;;;14.71;100.00;98521.84;6204444;28;20228;-57
2023/08/11 07:26:27;;;;;;;3.03;2.30;;;;;;;14.84;100.00;98508.06;6205704;28;20611;-57
2023/08/11 07:29:29;;;;;;;2.93;2.10;;;;;;;15.14;100.00;98522.94;6204564;28;20661;-56
2023/08/11 07:32:32;;;;;;;4.37;2.43;;;;;;;15.35;100.00;98526.66;6206686;28;20224;-57
2023/08/11 07:35:34;;;;;;;3.90;2.20;;;;;;;15.60;97.36;98523.41;6204868;28;20233;-55
2023/08/11 07:38:36;;;;;;;2.27;1.83;;;;;;;15.78;95.19;98525.78;6205946;28;20260;-58
2023/08/11 07:41:38;;;;;;;2.80;1.83;;;;;;;16.08;89.62;98530.63;6204424;28;20232;-57
2023/08/11 07:44:41;;;;;;;1.67;1.57;;;;;;;16.42;83.15;98527.66;6208955;28;20271;-57
2023/08/11 07:47:43;;;;;;;2.47;1.97;;;;;;;16.83;78.42;98531.41;6200152;28;20263;-57
2023/08/11 07:50:45;;;;;;;1.77;1.57;;;;;;;17.24;71.94;98532.41;6204596;28;20239;-58
2023/08/11 07:53:48;;;;;;;1.70;1.60;;;;;;;17.72;68.60;98533.06;6186476;28;20228;-58
2023/08/11 07:56:50;;;;;;;2.20;1.27;;;;;;;17.88;68.78;98522.31;6202833;28;20237;-57
2023/08/11 07:59:53;;;;;;;2.63;1.63;;;;;;;18.10;69.33;98539.06;6204462;28;20232;-58
2023/08/11 08:02:55;;;;;;;1.70;1.43;;;;;;;18.09;71.88;98537.44;6200297;28;20240;-58
2023/08/11 08:05:58;;;;;;;2.90;1.40;;;;;;;18.04;72.54;98527.47;6203442;28;20232;-57
2023/08/11 08:09:01;;;;;;;1.37;1.27;;;;;;;18.00;73.88;98536.38;6199064;28;20235;-57
2023/08/11 08:12:03;;;;;;;1.50;1.40;;;;;;;18.11;72.79;98542.56;6199372;28;20239;-57
2023/08/11 08:15:06;;;;;;;1.57;1.47;;;;;;;18.12;72.60;98536.09;6204635;28;20598;-56
2023/08/11 08:18:08;;;;;;;2.53;1.60;;;;;;;18.27;68.33;98528.81;6206647;28;20229;-55
2023/08/11 08:21:11;;;;;;;1.40;1.13;;;;;;;18.42;67.98;98533.41;6210268;28;20227;-57
2023/08/11 08:24:14;;;;;;;1.50;1.40;;;;;;;18.55;68.84;98529.31;6208591;28;20245;-57
2023/08/11 08:27:23;;;;;;;3.03;1.43;;;;;;;18.49;70.07;98523.13;6189584;28;20303;-57
2023/08/11 08:30:25;;;;;;;2.53;1.33;;;;;;;18.68;64.57;98530.66;6204707;28;20598;-56
2023/08/11 08:33:28;;;;;;;1.30;1.20;;;;;;;18.99;58.55;98523.28;6208327;28;20865;-55
2023/08/11 08:36:30;;;;;;;3.30;1.30;;;;;;;19.31;62.43;98531.81;6207245;28;20235;-57
2023/08/11 08:39:32;;;;;;;2.53;1.40;;;;;;;19.28;65.15;98534.25;6203471;28;20311;-57
2023/08/11 08:42:34;;;;;;;1.50;1.33;;;;;;;19.22;66.93;98530.78;6190343;28;20231;-56
2023/08/11 08:45:39;;;;;;;2.03;1.40;;;;;;;19.32;66.12;98527.22;6209717;28;20367;-55
2023/08/11 08:48:55;;;;;;;1.50;1.40;;;;;;;19.42;63.32;98534.47;6202784;28;20315;-57
2023/08/11 08:51:58;;;;;;;1.20;1.10;;;;;;;19.62;56.67;98539.78;6207216;28;20612;-57
2023/08/11 08:55:01;;;;;;;4.40;1.40;;;;;;;19.88;54.86;98532.31;6207041;28;20236;-57
2023/08/11 08:58:03;;;;;;;1.50;1.30;;;;;;;20.10;55.89;98542.72;6207533;28;20252;-56
2023/08/11 09:01:07;;;;;;;1.20;1.10;;;;;;;20.17;52.59;98536.97;6207184;28;20233;-57
2023/08/11 09:04:10;;;;;;;2.00;1.10;;;;;;;20.04;56.65;98538.41;6206727;28;20646;-56
2023/08/11 09:07:13;;;;;;;2.00;1.50;;;;;;;20.01;62.76;98537.09;6205992;28;20310;-56
2023/08/11 09:10:18;;;;;;;1.30;1.20;;;;;;;20.16;54.62;98546.97;6209575;28;20923;-57
2023/08/11 09:13:20;;;;;;;1.63;1.37;;;;;;;20.22;55.90;98535.00;6204295;28;20318;-57
2023/08/11 09:16:24;;;;;;;1.20;1.10;;;;;;;20.17;55.63;98543.19;6206948;28;20610;-54
2023/08/11 09:19:28;;;;;;;1.83;1.10;;;;;;;20.29;51.94;98545.50;6189472;28;20243;-56
2023/08/11 09:22:32;;;;;;;2.97;1.43;;;;;;;20.65;47.00;98539.81;6207153;28;20832;-54
2023/08/11 09:25:34;;;;;;;2.37;1.20;;;;;;;20.59;51.37;98547.16;6206811;28;20886;-56
2023/08/11 09:28:38;;;;;;;1.20;1.10;;;;;;;20.42;56.82;98539.44;6204052;28;20244;-57
2023/08/11 09:31:40;;;;;;;4.77;1.30;;;;;;;20.31;58.35;98535.22;6206589;28;20610;-56
2023/08/11 09:34:43;;;;;;;1.67;1.33;;;;;;;20.40;52.17;98548.94;6210630;28;20298;-56
2023/08/11 09:37:46;;;;;;;1.13;1.00;;;;;;;20.56;47.14;98542.31;6207566;28;20240;-54
2023/08/11 09:40:51;;;;;;;1.13;1.03;;;;;;;20.61;51.90;98532.25;6206366;28;20244;-56
2023/08/11 09:43:53;;;;;;;1.90;1.40;;;;;;;20.73;48.63;98544.59;6206150;28;20394;-56
2023/08/11 09:46:56;;;;;;;1.67;1.40;;;;;;;20.73;49.47;98529.13;6209459;28;20646;-56
2023/08/11 09:49:59;;;;;;;1.63;1.33;;;;;;;20.84;45.24;98533.38;6211017;28;20232;-53
2023/08/11 09:53:05;;;;;;;1.70;1.40;;;;;;;20.89;46.66;98529.00;6207014;28;20240;-57
2023/08/11 09:56:10;;;;;;;1.87;1.23;;;;;;;20.85;50.40;98526.84;6201929;28;20512;-57
2023/08/11 09:59:18;;;;;;;2.80;1.40;;;;;;;20.82;49.91;98530.13;6191341;28;20424;-57
2023/08/11 10:02:27;;;;;;;1.20;1.00;;;;;;;21.00;49.87;98525.06;6180182;28;20236;-55
2023/08/11 10:05:32;;;;;;;1.20;1.10;;;;;;;21.10;47.79;98519.53;6205518;28;20371;-57
2023/08/11 10:08:35;;;;;;;2.43;1.17;;;;;;;21.14;48.84;98512.44;6207557;28;20639;-56
2023/08/11 10:11:38;;;;;;;1.33;1.23;;;;;;;21.17;48.18;98517.25;6207717;28;20239;-57
2023/08/11 10:14:42;;;;;;;2.20;1.20;;;;;;;21.26;44.29;98499.25;6204320;28;20232;-56
2023/08/11 10:17:45;;;;;;;1.30;1.20;;;;;;;21.54;50.40;98507.59;6204041;28;20243;-57
2023/08/11 10:20:51;;;;;;;2.27;1.40;;;;;;;21.49;44.72;98503.06;6206992;28;20246;-57
2023/08/11 10:23:54;;;;;;;1.90;1.03;;;;;;;21.46;46.16;98506.34;6208257;28;20327;-56
2023/08/11 10:26:56;;;;;;;1.53;1.33;;;;;;;21.58;42.73;98503.22;6204752;28;20819;-56
2023/08/11 10:30:00;;;;;;;1.20;1.10;;;;;;;21.66;43.40;98507.94;6205442;28;20232;-57
2023/08/11 10:33:03;;;;;;;1.10;1.00;;;;;;;21.76;43.70;98507.78;6204678;28;20236;-55
2023/08/11 10:36:10;;;;;;;2.17;1.20;;;;;;;21.80;38.75;98516.16;6201883;28;20271;-56
2023/08/11 10:39:18;;;;;;;0.90;0.90;;;;;;;21.72;40.44;98512.19;6205748;28;20358;-57
2023/08/11 10:42:21;;;;;;;1.57;1.00;;;;;;;21.69;40.99;98506.56;6205467;28;20348;-56
2023/08/11 10:45:24;;;;;;;1.07;0.97;;;;;;;21.69;41.81;98509.28;6205541;28;20316;-56
2023/08/11 10:48:29;;;;;;;1.97;1.13;;;;;;;21.99;38.26;98500.66;6190489;28;20653;-56
2023/08/11 10:51:36;;;;;;;1.80;1.10;;;;;;;21.99;39.24;98508.81;6202032;28;20697;-56
2023/08/11 10:54:38;;;;;;;2.80;1.30;;;;;;;21.94;42.65;98500.75;6204394;28;20243;-56
2023/08/11 10:57:40;;;;;;;1.00;0.90;;;;;;;21.85;41.98;98494.38;6204956;28;20224;-57
2023/08/11 11:00:42;;;;;;;1.90;1.33;;;;;;;22.18;39.76;98495.22;6201190;28;20371;-55
2023/08/11 11:03:45;;;;;;;2.27;1.30;;;;;;;22.36;36.57;98512.56;6204355;28;20243;-56
2023/08/11 11:06:51;;;;;;;1.93;1.33;;;;;;;22.45;37.54;98509.97;6204077;28;20318;-56
2023/08/11 11:09:53;;;;;;;1.03;0.93;;;;;;;22.37;39.04;98500.63;6204007;28;20228;-56
2023/08/11 11:12:55;;;;;;;1.80;1.20;;;;;;;22.31;38.38;98504.50;6207041;28;20479;-56
2023/08/11 11:15:58;;;;;;;1.13;1.03;;;;;;;22.49;38.49;98502.84;6205780;28;20240;-57
2023/08/11 11:19:01;;;;;;;2.23;1.00;;;;;;;22.47;40.70;98502.34;6200869;28;20350;-57
2023/08/11 11:22:06;;;;;;;2.63;1.50;;;;;;;22.55;38.83;98502.44;6203798;28;20743;-56
2023/08/11 11:25:11;;;;;;;1.57;1.30;;;;;;;22.50;37.44;98499.81;6204140;28;20283;-55
2023/08/11 11:28:13;;;;;;;1.70;1.23;;;;;;;22.69;36.34;98491.59;6202940;28;20248;-57
2023/08/11 11:31:17;;;;;;;3.63;1.30;;;;;;;22.77;36.94;98498.25;6205084;28;20266;-56
2023/08/11 11:34:20;;;;;;;1.37;1.03;;;;;;;22.68;36.91;98487.25;6203840;28;20286;-56
2023/08/11 11:37:23;;;;;;;1.20;1.10;;;;;;;22.60;41.90;98483.31;6206955;28;20228;-56
2023/08/11 11:40:29;;;;;;;1.50;1.40;;;;;;;22.62;37.87;98493.91;6203927;28;20274;-55
2023/08/11 11:43:32;;;;;;;3.33;1.10;;;;;;;22.51;40.11;98485.16;6204189;28;20232;-57
2023/08/11 11:46:34;;;;;;;1.40;1.30;;;;;;;22.59;42.46;98486.34;6205945;28;20252;-57
2023/08/11 11:49:36;;;;;;;1.50;1.20;;;;;;;22.60;43.90;98493.38;6205434;28;20243;-57
2023/08/11 11:52:42;;;;;;;2.70;1.33;;;;;;;22.53;37.84;98487.56;6206126;28;20318;-56
2023/08/11 11:55:47;;;;;;;1.80;1.30;;;;;;;22.60;38.76;98493.38;6204482;28;20235;-56
2023/08/11 11:58:50;;;;;;;1.57;1.30;;;;;;;22.81;37.62;98489.19;6208053;28;20374;-57
2023/08/11 12:01:52;;;;;;;1.33;1.03;;;;;;;23.01;39.36;98487.22;6208001;28;20230;-56
2023/08/11 12:04:55;;;;;;;1.40;1.30;;;;;;;22.85;40.22;98478.50;6208123;28;20244;-56
2023/08/11 12:07:58;;;;;;;1.40;1.30;;;;;;;22.74;45.59;98472.47;6208987;28;20793;-56
2023/08/11 12:11:03;;;;;;;1.60;1.00;;;;;;;22.72;45.22;98476.63;6207402;28;20231;-56
2023/08/11 12:14:06;;;;;;;1.23;1.13;;;;;;;22.70;43.79;98476.91;6209491;28;20290;-55
2023/08/11 12:17:08;;;;;;;1.45;1.35;;;;;;;22.75;43.12;98476.78;6207735;28;20609;-56
2023/08/11 12:20:12;;;;;;;3.73;1.30;;;;;;;22.90;36.94;98475.72;6203516;28;20598;-56
2023/08/11 12:23:14;;;;;;;1.63;1.10;;;;;;;23.24;35.98;98486.16;6207113;28;20233;-55
2023/08/11 12:26:17;;;;;;;2.47;1.20;;;;;;;23.17;36.50;98480.34;6192581;28;20313;-57
2023/08/11 12:29:19;;;;;;;1.60;1.38;;;;;;;23.08;36.56;98477.53;6202997;28;20439;-57
2023/08/11 12:32:22;;;;;;;1.87;1.20;;;;;;;23.12;35.58;98477.72;6212478;28;20232;-57
2023/08/11 12:35:24;;;;;;;1.20;1.10;;;;;;;23.33;34.84;98473.44;6207416;28;20239;-55
2023/08/11 12:38:26;;;;;;;1.40;1.30;;;;;;;23.37;35.70;98476.38;6204980;28;20343;-54
2023/08/11 12:41:28;;;;;;;1.17;1.05;;;;;;;23.24;38.05;98474.47;6204907;28;20314;-55
2023/08/11 12:44:30;;;;;;;1.38;1.20;;;;;;;23.14;39.27;98470.06;6207583;28;20760;-57
2023/08/11 12:47:33;;;;;;;1.33;0.90;;;;;;;23.06;40.88;98466.16;6213189;28;20228;-56
2023/08/11 12:50:36;;;;;;;1.17;1.08;;;;;;;22.91;41.38;98464.56;6203978;28;20322;-56
2023/08/11 12:53:38;;;;;;;1.42;1.25;;;;;;;22.95;40.01;98451.16;6209101;28;20236;-56
2023/08/11 12:56:40;;;;;;;2.60;1.40;;;;;;;23.15;38.41;98450.75;6207555;28;20607;-54
2023/08/11 12:59:43;;;;;;;1.10;0.98;;;;;;;23.29;38.23;98464.28;6203383;28;20244;-55
2023/08/11 13:02:49;;;;;;;1.50;1.20;;;;;;;23.25;39.31;98455.16;6207383;28;20237;-57
2023/08/11 13:05:52;;;;;;;1.17;1.00;;;;;;;23.22;41.23;98463.91;6203062;28;20241;-56
2023/08/11 13:08:55;;;;;;;1.52;1.00;;;;;;;22.97;42.36;98465.25;6202774;28;20247;-56
2023/08/11 13:11:57;;;;;;;1.42;1.05;;;;;;;22.87;38.50;98457.28;6206060;28;20315;-54
2023/08/11 13:15:00;;;;;;;1.20;1.10;;;;;;;22.80;42.56;98456.88;6205450;28;20228;-56
2023/08/11 13:18:05;;;;;;;3.53;1.10;;;;;;;22.72;41.84;98452.16;6189847;28;20247;-56
2023/08/11 13:21:08;;;;;;;1.83;1.40;;;;;;;22.86;37.28;98448.34;6179449;28;20228;-56
2023/08/11 13:24:10;;;;;;;2.17;1.10;;;;;;;22.87;38.76;98439.06;6206526;28;20251;-55
2023/08/11 13:27:12;;;;;;;1.73;1.13;;;;;;;22.84;41.10;98450.53;6205533;28;20375;-55
2023/08/11 13:30:15;;;;;;;1.33;1.17;;;;;;;22.84;41.08;98444.28;6207904;28;20220;-55
2023/08/11 13:33:17;;;;;;;2.37;1.10;;;;;;;23.30;35.84;98440.63;6209142;28;20397;-56
2023/08/11 13:36:20;;;;;;;1.52;1.30;;;;;;;23.15;42.37;98450.75;6202565;28;20247;-56
2023/08/11 13:39:23;;;;;;;2.60;1.00;;;;;;;23.07;40.78;98447.94;6206938;28;20225;-55
2023/08/11 13:42:25;;;;;;;1.48;1.20;;;;;;;22.92;44.62;98430.84;6207047;28;20236;-56
2023/08/11 13:45:27;;;;;;;1.88;1.20;;;;;;;22.71;42.53;98431.53;6202322;28;20306;-56
2023/08/11 13:48:30;;;;;;;2.08;1.15;;;;;;;22.74;45.26;98439.88;6206761;28;20239;-56
2023/08/11 13:51:33;;;;;;;1.67;1.15;;;;;;;22.63;46.13;98433.03;6210164;28;20236;-56
2023/08/11 13:54:36;;;;;;;1.20;1.10;;;;;;;22.58;41.31;98422.28;6209293;28;20240;-56
2023/08/11 13:57:38;;;;;;;1.33;1.10;;;;;;;22.86;40.26;98428.50;6204704;28;20248;-55
2023/08/11 14:00:41;;;;;;;1.58;1.38;;;;;;;22.81;43.84;98428.63;6205258;28;20291;-56
2023/08/11 14:03:43;;;;;;;1.50;1.17;;;;;;;22.72;42.71;98442.09;6180795;28;20698;-55
2023/08/11 14:06:46;;;;;;;1.37;1.17;;;;;;;22.92;40.35;98430.84;6213265;28;20252;-57
2023/08/11 14:09:48;;;;;;;1.63;1.27;;;;;;;22.91;42.08;98426.53;6209136;28;20244;-56
2023/08/11 14:12:51;;;;;;;1.25;1.02;;;;;;;22.77;47.65;98439.28;6206125;28;20246;-53
2023/08/11 14:15:54;;;;;;;1.30;1.20;;;;;;;22.69;40.59;98422.88;6204808;28;20287;-55
2023/08/11 14:25:58;;;;;;;2.05;1.33;;;;;;;23.01;47.59;98422.78;6222591;28;20239;-55